Time;durP1;ratioP1;P1;durP2;ratioP2;P2;SDS_P1;SDS_P2;PMS_P1;PMS_P2;Temp;Humidity;BMP_temperature;BMP_pressure;BME280_temperature;BME280_humidity;BME280_pressure;Samples;Min_cycle;Max_cycle;Signal;HPM_P1;HPM_P2
2023/09/16 00:00:54;;;;;;;0.10;0.10;;;;;;;;;;5104458;28;20044;-43
2023/09/16 00:03:20;;;;;;;0.10;0.10;;;;;;;;;;5104533;28;20151;-44
2023/09/16 00:05:45;;;;;;;0.10;0.10;;;;;;;;;;5104276;28;20152;-44
2023/09/16 00:08:11;;;;;;;0.10;0.10;;;;;;;;;;5104366;28;20044;-45
2023/09/16 00:10:36;;;;;;;0.10;0.10;;;;;;;;;;5104210;28;20047;-45
2023/09/16 00:13:02;;;;;;;0.10;0.10;;;;;;;;;;5103823;28;20450;-46
2023/09/16 00:15:28;;;;;;;0.10;0.10;;;;;;;;;;5105981;28;20070;-44
2023/09/16 00:17:54;;;;;;;0.10;0.10;;;;;;;;;;5102276;28;20465;-45
2023/09/16 00:20:20;;;;;;;0.10;0.10;;;;;;;;;;5087532;28;20473;-44
2023/09/16 00:22:46;;;;;;;0.10;0.10;;;;;;;;;;5096852;28;20047;-47
2023/09/16 00:25:12;;;;;;;0.10;0.10;;;;;;;;;;5107983;28;20340;-46
2023/09/16 00:27:39;;;;;;;0.10;0.10;;;;;;;;;;5104719;28;20645;-47
2023/09/16 00:30:05;;;;;;;0.10;0.10;;;;;;;;;;5086725;28;20083;-42
2023/09/16 00:32:31;;;;;;;0.10;0.10;;;;;;;;;;5086759;28;20063;-47
2023/09/16 00:34:58;;;;;;;0.10;0.10;;;;;;;;;;5099076;28;20052;-46
2023/09/16 00:37:24;;;;;;;0.10;0.10;;;;;;;;;;5105699;28;20379;-46
2023/09/16 00:39:50;;;;;;;0.10;0.10;;;;;;;;;;5087590;28;20074;-43
2023/09/16 00:42:16;;;;;;;0.10;0.10;;;;;;;;;;5099668;28;20139;-46
2023/09/16 00:44:42;;;;;;;0.10;0.10;;;;;;;;;;5107406;28;20096;-46
2023/09/16 00:47:07;;;;;;;0.10;0.10;;;;;;;;;;5107327;28;20048;-45
2023/09/16 00:49:33;;;;;;;0.10;0.10;;;;;;;;;;5106806;28;20043;-44
2023/09/16 00:51:59;;;;;;;0.10;0.10;;;;;;;;;;5106894;28;20047;-46
2023/09/16 00:54:25;;;;;;;0.20;0.20;;;;;;;;;;5106257;28;20059;-42
2023/09/16 00:56:51;;;;;;;0.10;0.10;;;;;;;;;;5106390;28;20088;-45
2023/09/16 00:59:17;;;;;;;0.10;0.10;;;;;;;;;;5106891;28;20071;-43
2023/09/16 01:01:44;;;;;;;0.10;0.10;;;;;;;;;;5107489;28;20071;-46
2023/09/16 01:04:11;;;;;;;0.10;0.10;;;;;;;;;;5107059;28;20040;-44
2023/09/16 01:06:37;;;;;;;0.10;0.10;;;;;;;;;;5107053;28;20058;-43
2023/09/16 01:09:04;;;;;;;0.10;0.10;;;;;;;;;;5092214;28;20051;-45
2023/09/16 01:11:29;;;;;;;0.10;0.10;;;;;;;;;;5086080;28;20056;-45
2023/09/16 01:13:55;;;;;;;0.10;0.10;;;;;;;;;;5087535;28;20109;-42
2023/09/16 01:16:25;;;;;;;0.10;0.10;;;;;;;;;;5105592;28;20096;-46
2023/09/16 01:18:52;;;;;;;0.10;0.10;;;;;;;;;;5106365;28;20138;-45
2023/09/16 01:21:19;;;;;;;0.10;0.10;;;;;;;;;;5105739;28;20048;-45
2023/09/16 01:23:45;;;;;;;0.10;0.10;;;;;;;;;;5105791;28;20065;-45
2023/09/16 01:26:10;;;;;;;0.10;0.10;;;;;;;;;;5105667;28;20488;-43
2023/09/16 01:28:36;;;;;;;0.10;0.10;;;;;;;;;;5104374;28;20393;-45
2023/09/16 01:31:02;;;;;;;0.10;0.10;;;;;;;;;;5105237;28;20051;-45
2023/09/16 01:33:33;;;;;;;0.20;0.13;;;;;;;;;;5105818;28;20043;-46
2023/09/16 01:36:02;;;;;;;0.10;0.10;;;;;;;;;;5104239;28;20057;-45
2023/09/16 01:38:31;;;;;;;0.10;0.10;;;;;;;;;;5104858;28;20067;-45
2023/09/16 01:40:57;;;;;;;0.10;0.10;;;;;;;;;;5106188;28;20147;-45
2023/09/16 01:43:23;;;;;;;0.10;0.10;;;;;;;;;;5105304;28;20044;-44
2023/09/16 01:45:48;;;;;;;0.10;0.10;;;;;;;;;;5106277;28;20100;-46
2023/09/16 01:48:16;;;;;;;0.10;0.10;;;;;;;;;;5105679;28;20155;-47
2023/09/16 01:50:42;;;;;;;0.10;0.10;;;;;;;;;;5110686;28;20453;-45
2023/09/16 01:53:07;;;;;;;0.10;0.10;;;;;;;;;;5125895;28;20484;-46
2023/09/16 01:55:34;;;;;;;0.10;0.10;;;;;;;;;;5111052;28;20059;-46
2023/09/16 01:57:59;;;;;;;0.10;0.10;;;;;;;;;;5103523;28;20055;-47
2023/09/16 02:00:25;;;;;;;0.15;0.15;;;;;;;;;;5104181;28;20138;-43
2023/09/16 02:02:51;;;;;;;0.10;0.10;;;;;;;;;;5105471;28;20126;-45
2023/09/16 02:05:16;;;;;;;0.10;0.10;;;;;;;;;;5104969;28;20071;-44
2023/09/16 02:07:42;;;;;;;0.10;0.10;;;;;;;;;;5105294;28;20142;-42
2023/09/16 02:10:08;;;;;;;0.10;0.10;;;;;;;;;;5105494;28;20055;-47
2023/09/16 02:12:34;;;;;;;0.10;0.10;;;;;;;;;;5105588;28;20131;-44
2023/09/16 02:14:59;;;;;;;0.10;0.10;;;;;;;;;;5105388;28;20063;-43
2023/09/16 02:17:25;;;;;;;0.10;0.10;;;;;;;;;;5105103;28;20061;-44
2023/09/16 02:19:51;;;;;;;0.10;0.10;;;;;;;;;;5106593;28;20400;-54
2023/09/16 02:22:17;;;;;;;0.10;0.10;;;;;;;;;;5105914;28;20054;-54
2023/09/16 02:24:43;;;;;;;0.10;0.10;;;;;;;;;;5106016;28;20048;-54
2023/09/16 02:27:08;;;;;;;0.10;0.10;;;;;;;;;;5105839;28;20143;-54
2023/09/16 02:29:34;;;;;;;0.10;0.10;;;;;;;;;;5105078;28;20511;-54
2023/09/16 02:32:00;;;;;;;0.13;0.13;;;;;;;;;;5106695;28;20238;-54
2023/09/16 02:34:25;;;;;;;0.10;0.10;;;;;;;;;;5105924;28;20093;-54
2023/09/16 02:36:51;;;;;;;0.10;0.10;;;;;;;;;;5105041;28;20313;-54
2023/09/16 02:39:16;;;;;;;0.20;0.20;;;;;;;;;;5097859;28;20372;-54
2023/09/16 02:41:42;;;;;;;0.10;0.10;;;;;;;;;;5105916;28;20078;-54
2023/09/16 02:44:08;;;;;;;0.10;0.10;;;;;;;;;;5106132;28;20055;-54
2023/09/16 02:46:33;;;;;;;0.10;0.10;;;;;;;;;;5105966;28;20188;-54
2023/09/16 02:49:01;;;;;;;0.10;0.10;;;;;;;;;;5105535;28;20048;-54
2023/09/16 02:51:27;;;;;;;0.10;0.10;;;;;;;;;;5125795;28;20088;-54
2023/09/16 02:53:54;;;;;;;0.10;0.10;;;;;;;;;;5126776;28;20102;-54
2023/09/16 02:56:20;;;;;;;0.10;0.10;;;;;;;;;;5107181;28;20048;-54
2023/09/16 02:58:45;;;;;;;0.10;0.10;;;;;;;;;;5105121;28;20047;-54
2023/09/16 03:01:11;;;;;;;0.10;0.10;;;;;;;;;;5106264;28;20074;-54
2023/09/16 03:03:37;;;;;;;0.15;0.15;;;;;;;;;;5105831;28;20120;-54
2023/09/16 03:06:03;;;;;;;0.10;0.10;;;;;;;;;;5105263;28;20081;-56
2023/09/16 03:08:29;;;;;;;0.10;0.10;;;;;;;;;;5103572;28;20063;-56
2023/09/16 03:11:02;;;;;;;0.10;0.10;;;;;;;;;;5104151;28;20496;-54
2023/09/16 03:13:28;;;;;;;0.10;0.10;;;;;;;;;;5104296;28;20051;-54
2023/09/16 03:16:14;;;;;;;0.10;0.10;;;;;;;;;;5104405;28;20116;-54
2023/09/16 03:18:42;;;;;;;0.10;0.10;;;;;;;;;;5097737;28;20058;-54
2023/09/16 03:21:07;;;;;;;0.10;0.10;;;;;;;;;;5105384;28;20052;-54
2023/09/16 03:23:33;;;;;;;0.10;0.10;;;;;;;;;;5105135;28;20389;-54
2023/09/16 03:25:58;;;;;;;0.10;0.10;;;;;;;;;;5104267;28;20055;-54
2023/09/16 03:28:24;;;;;;;0.10;0.10;;;;;;;;;;5094917;28;20047;-55
2023/09/16 03:30:49;;;;;;;0.10;0.10;;;;;;;;;;5084516;28;20044;-54
2023/09/16 03:33:15;;;;;;;0.10;0.10;;;;;;;;;;5093761;28;20059;-54
2023/09/16 03:35:41;;;;;;;0.10;0.10;;;;;;;;;;5104224;28;20047;-54
2023/09/16 03:38:06;;;;;;;0.10;0.10;;;;;;;;;;5097874;28;20502;-54
2023/09/16 03:40:33;;;;;;;0.10;0.10;;;;;;;;;;5088851;28;20044;-55
2023/09/16 03:42:58;;;;;;;0.10;0.10;;;;;;;;;;5104256;28;20067;-55
2023/09/16 03:45:24;;;;;;;0.10;0.10;;;;;;;;;;5104475;28;20052;-54
2023/09/16 03:47:55;;;;;;;0.10;0.10;;;;;;;;;;5104295;28;20044;-54
2023/09/16 03:50:21;;;;;;;0.10;0.10;;;;;;;;;;5118718;28;20077;-54
2023/09/16 03:52:48;;;;;;;0.10;0.10;;;;;;;;;;5129301;28;20042;-54
2023/09/16 03:55:14;;;;;;;0.10;0.10;;;;;;;;;;5120649;28;20490;-54
2023/09/16 03:57:41;;;;;;;0.10;0.10;;;;;;;;;;5104181;28;20171;-54
2023/09/16 04:00:07;;;;;;;0.10;0.10;;;;;;;;;;5088557;28;20086;-54
2023/09/16 04:02:32;;;;;;;0.10;0.10;;;;;;;;;;5107298;28;20108;-54
2023/09/16 04:04:58;;;;;;;0.10;0.10;;;;;;;;;;5108086;28;20059;-54
2023/09/16 04:07:23;;;;;;;0.10;0.10;;;;;;;;;;5107176;28;20100;-54
2023/09/16 04:09:49;;;;;;;0.10;0.10;;;;;;;;;;5107426;28;20097;-54
2023/09/16 04:12:15;;;;;;;0.10;0.10;;;;;;;;;;5107253;28;20369;-54
2023/09/16 04:14:40;;;;;;;0.10;0.10;;;;;;;;;;5106787;28;20075;-54
2023/09/16 04:17:06;;;;;;;0.10;0.10;;;;;;;;;;5105903;28;20412;-54
2023/09/16 04:19:31;;;;;;;0.10;0.10;;;;;;;;;;5107004;28;20503;-54
2023/09/16 04:21:57;;;;;;;0.10;0.10;;;;;;;;;;5107598;28;20058;-54
2023/09/16 04:24:22;;;;;;;0.10;0.10;;;;;;;;;;5107369;28;20059;-54
2023/09/16 04:26:48;;;;;;;0.10;0.10;;;;;;;;;;5106186;28;20051;-54
2023/09/16 04:29:13;;;;;;;0.10;0.10;;;;;;;;;;5107217;28;20054;-54
2023/09/16 04:31:42;;;;;;;0.10;0.10;;;;;;;;;;5107235;28;20075;-54
2023/09/16 04:34:08;;;;;;;0.22;0.20;;;;;;;;;;5106457;28;20055;-54
2023/09/16 04:36:34;;;;;;;0.10;0.10;;;;;;;;;;5106181;28;20069;-54
2023/09/16 04:38:59;;;;;;;0.10;0.10;;;;;;;;;;5092410;28;20490;-54
2023/09/16 04:41:25;;;;;;;0.10;0.10;;;;;;;;;;5086667;28;20067;-54
2023/09/16 04:43:51;;;;;;;0.10;0.10;;;;;;;;;;5102053;28;20052;-54
2023/09/16 04:46:18;;;;;;;0.10;0.10;;;;;;;;;;5106148;28;20073;-54
2023/09/16 04:48:45;;;;;;;0.10;0.10;;;;;;;;;;5106145;27;20142;-54
2023/09/16 04:51:11;;;;;;;0.10;0.10;;;;;;;;;;5106420;28;20552;-54
2023/09/16 04:53:36;;;;;;;0.10;0.10;;;;;;;;;;5105609;28;20158;-54
2023/09/16 04:56:02;;;;;;;0.10;0.10;;;;;;;;;;5105307;28;20484;-54
2023/09/16 04:58:28;;;;;;;0.10;0.10;;;;;;;;;;5105982;28;20083;-54
2023/09/16 05:00:53;;;;;;;0.10;0.10;;;;;;;;;;5106349;28;20047;-54
2023/09/16 05:03:19;;;;;;;0.10;0.10;;;;;;;;;;5106203;28;20071;-54
2023/09/16 05:05:46;;;;;;;0.10;0.10;;;;;;;;;;5106419;28;20097;-54
2023/09/16 05:08:11;;;;;;;0.10;0.10;;;;;;;;;;5099006;28;20068;-54
2023/09/16 05:10:37;;;;;;;0.10;0.10;;;;;;;;;;5086376;28;20432;-54
2023/09/16 05:13:03;;;;;;;0.10;0.10;;;;;;;;;;5085874;28;20563;-54
2023/09/16 05:15:28;;;;;;;0.10;0.10;;;;;;;;;;5094617;28;20519;-54
2023/09/16 05:17:54;;;;;;;0.10;0.10;;;;;;;;;;5105219;28;20059;-54
2023/09/16 05:20:20;;;;;;;0.10;0.10;;;;;;;;;;5106664;28;20047;-54
2023/09/16 05:22:46;;;;;;;0.10;0.10;;;;;;;;;;5106661;28;20045;-54
2023/09/16 05:25:12;;;;;;;0.10;0.10;;;;;;;;;;5106154;28;20124;-54
2023/09/16 05:27:37;;;;;;;0.10;0.10;;;;;;;;;;5105805;28;20039;-54
2023/09/16 05:30:03;;;;;;;0.28;0.28;;;;;;;;;;5106449;28;20051;-54
2023/09/16 05:32:29;;;;;;;0.10;0.10;;;;;;;;;;5105655;28;20043;-54
2023/09/16 05:34:55;;;;;;;0.20;0.20;;;;;;;;;;5104486;28;20446;-54
2023/09/16 05:37:20;;;;;;;0.10;0.10;;;;;;;;;;5104726;28;20500;-54
2023/09/16 05:39:46;;;;;;;0.30;0.30;;;;;;;;;;5106028;28;20130;-55
2023/09/16 05:42:11;;;;;;;0.10;0.10;;;;;;;;;;5105594;28;20059;-54
2023/09/16 05:44:37;;;;;;;0.10;0.10;;;;;;;;;;5105422;28;20044;-54
2023/09/16 05:47:02;;;;;;;0.10;0.10;;;;;;;;;;5098357;28;20036;-55
2023/09/16 05:49:28;;;;;;;0.10;0.10;;;;;;;;;;5103564;28;20543;-55
2023/09/16 05:51:54;;;;;;;0.10;0.10;;;;;;;;;;5105548;28;20112;-54
2023/09/16 05:54:20;;;;;;;0.10;0.10;;;;;;;;;;5106072;28;20047;-54
2023/09/16 05:56:46;;;;;;;0.10;0.10;;;;;;;;;;5104357;28;20083;-54
2023/09/16 05:59:12;;;;;;;0.10;0.10;;;;;;;;;;5100219;28;20079;-54
2023/09/16 06:01:38;;;;;;;0.10;0.10;;;;;;;;;;5105844;28;20050;-54
2023/09/16 06:04:03;;;;;;;0.10;0.10;;;;;;;;;;5105373;28;20584;-54
2023/09/16 06:06:29;;;;;;;0.10;0.10;;;;;;;;;;5104785;28;20052;-54
2023/09/16 06:08:55;;;;;;;0.10;0.10;;;;;;;;;;5091870;28;20048;-54
2023/09/16 06:11:20;;;;;;;0.10;0.10;;;;;;;;;;5084867;28;20048;-54
2023/09/16 06:13:46;;;;;;;0.10;0.10;;;;;;;;;;5084844;28;20040;-54
2023/09/16 06:16:11;;;;;;;0.10;0.10;;;;;;;;;;5098735;28;20047;-55
2023/09/16 06:18:37;;;;;;;0.10;0.10;;;;;;;;;;5094153;28;20059;-55
2023/09/16 06:21:03;;;;;;;0.10;0.10;;;;;;;;;;5085120;28;20058;-55
2023/09/16 06:23:29;;;;;;;0.10;0.10;;;;;;;;;;5085537;28;20074;-54
2023/09/16 06:25:55;;;;;;;0.10;0.10;;;;;;;;;;5092893;28;20051;-54
2023/09/16 06:28:20;;;;;;;0.10;0.10;;;;;;;;;;5096421;28;20048;-55
2023/09/16 06:30:45;;;;;;;0.10;0.10;;;;;;;;;;5085135;28;20056;-55
2023/09/16 06:33:11;;;;;;;0.10;0.10;;;;;;;;;;5085906;28;20417;-55
2023/09/16 06:35:37;;;;;;;0.10;0.10;;;;;;;;;;5104565;28;20051;-54
2023/09/16 06:38:02;;;;;;;0.10;0.10;;;;;;;;;;5098044;28;20051;-54
2023/09/16 06:40:28;;;;;;;0.10;0.10;;;;;;;;;;5085309;28;20587;-55
2023/09/16 06:42:53;;;;;;;0.10;0.10;;;;;;;;;;5084764;28;20059;-55
2023/09/16 06:45:19;;;;;;;0.15;0.15;;;;;;;;;;5088767;28;20062;-54
2023/09/16 06:47:47;;;;;;;0.10;0.10;;;;;;;;;;5099708;28;20039;-54
2023/09/16 06:50:12;;;;;;;0.10;0.10;;;;;;;;;;5085100;28;20425;-54
2023/09/16 06:52:38;;;;;;;0.10;0.10;;;;;;;;;;5096015;28;20518;-55
2023/09/16 06:55:04;;;;;;;0.10;0.10;;;;;;;;;;5105442;28;20049;-55
2023/09/16 06:57:30;;;;;;;0.10;0.10;;;;;;;;;;5102538;28;20044;-55
2023/09/16 06:59:56;;;;;;;0.10;0.10;;;;;;;;;;5104787;28;20133;-55
2023/09/16 07:02:23;;;;;;;0.10;0.10;;;;;;;;;;5104704;28;20499;-55
2023/09/16 07:04:50;;;;;;;0.10;0.10;;;;;;;;;;5105389;28;20056;-55
2023/09/16 07:07:16;;;;;;;0.10;0.10;;;;;;;;;;5104398;28;20082;-51
2023/09/16 07:09:41;;;;;;;0.10;0.10;;;;;;;;;;5085265;28;20040;-55
2023/09/16 07:12:07;;;;;;;0.10;0.10;;;;;;;;;;5092434;28;20062;-55
2023/09/16 07:14:37;;;;;;;0.10;0.10;;;;;;;;;;5105260;28;20186;-55
2023/09/16 07:17:03;;;;;;;0.10;0.10;;;;;;;;;;5104632;28;20075;-54
2023/09/16 07:19:28;;;;;;;0.10;0.10;;;;;;;;;;5086728;28;20325;-55
2023/09/16 07:21:54;;;;;;;0.10;0.10;;;;;;;;;;5083376;28;20385;-55
2023/09/16 07:24:19;;;;;;;0.10;0.10;;;;;;;;;;5094345;28;20048;-54
2023/09/16 07:26:45;;;;;;;0.10;0.10;;;;;;;;;;5103591;28;20056;-54
2023/09/16 07:29:11;;;;;;;0.10;0.10;;;;;;;;;;5088031;28;20044;-55
2023/09/16 07:31:36;;;;;;;0.10;0.10;;;;;;;;;;5083285;28;20412;-55
2023/09/16 07:34:02;;;;;;;0.10;0.10;;;;;;;;;;5099605;28;20075;-55
2023/09/16 07:36:27;;;;;;;0.10;0.10;;;;;;;;;;5103657;28;20432;-54
2023/09/16 07:38:53;;;;;;;0.10;0.10;;;;;;;;;;5103892;28;20055;-55
2023/09/16 07:41:18;;;;;;;0.22;0.22;;;;;;;;;;5102996;28;20050;-55
2023/09/16 07:43:44;;;;;;;0.10;0.10;;;;;;;;;;5103461;28;20047;-55
2023/09/16 07:46:09;;;;;;;0.10;0.10;;;;;;;;;;5100399;28;20052;-54
2023/09/16 07:48:35;;;;;;;0.10;0.10;;;;;;;;;;5100102;28;20424;-54
2023/09/16 07:51:01;;;;;;;0.10;0.10;;;;;;;;;;5103396;28;20177;-54
2023/09/16 07:53:26;;;;;;;0.10;0.10;;;;;;;;;;5102821;28;20051;-54
2023/09/16 07:55:52;;;;;;;0.10;0.10;;;;;;;;;;5102628;28;20078;-54
2023/09/16 07:58:17;;;;;;;0.10;0.10;;;;;;;;;;5102553;28;20047;-55
2023/09/16 08:00:43;;;;;;;0.10;0.10;;;;;;;;;;5103979;28;20050;-55
2023/09/16 08:03:09;;;;;;;0.10;0.10;;;;;;;;;;5104328;28;20463;-54
2023/09/16 08:05:34;;;;;;;0.10;0.10;;;;;;;;;;5104320;28;20639;-54
2023/09/16 08:08:00;;;;;;;0.10;0.10;;;;;;;;;;5101921;28;20138;-54
2023/09/16 08:10:25;;;;;;;0.10;0.10;;;;;;;;;;5104133;28;20154;-54
2023/09/16 08:12:51;;;;;;;0.10;0.10;;;;;;;;;;5103544;28;20498;-54
2023/09/16 08:15:17;;;;;;;0.10;0.10;;;;;;;;;;5103573;28;20051;-54
2023/09/16 08:17:42;;;;;;;0.10;0.10;;;;;;;;;;5098835;28;20052;-54
2023/09/16 08:20:08;;;;;;;0.10;0.10;;;;;;;;;;5102114;28;20048;-54
2023/09/16 08:22:34;;;;;;;0.10;0.10;;;;;;;;;;5104264;28;20052;-54
2023/09/16 08:24:59;;;;;;;0.17;0.13;;;;;;;;;;5103627;28;20101;-54
2023/09/16 08:27:30;;;;;;;0.10;0.10;;;;;;;;;;5103436;28;20071;-54
2023/09/16 08:29:55;;;;;;;0.10;0.10;;;;;;;;;;5105205;28;20116;-54
2023/09/16 08:32:23;;;;;;;0.10;0.10;;;;;;;;;;5104946;28;20465;-54
2023/09/16 08:34:50;;;;;;;0.10;0.10;;;;;;;;;;5105443;28;20066;-56
2023/09/16 08:37:16;;;;;;;0.10;0.10;;;;;;;;;;5107097;28;20097;-55
2023/09/16 08:39:42;;;;;;;0.10;0.10;;;;;;;;;;5107149;28;20445;-54
2023/09/16 08:42:27;;;;;;;0.10;0.10;;;;;;;;;;5107883;28;20043;-54
2023/09/16 08:44:53;;;;;;;0.10;0.10;;;;;;;;;;5092283;28;20123;-54
2023/09/16 08:47:23;;;;;;;0.10;0.10;;;;;;;;;;5106667;28;20047;-54
2023/09/16 08:49:50;;;;;;;0.10;0.10;;;;;;;;;;5102060;28;20051;-54
2023/09/16 08:52:16;;;;;;;0.10;0.10;;;;;;;;;;5106271;28;20051;-55
2023/09/16 08:54:43;;;;;;;0.10;0.10;;;;;;;;;;5106391;28;20691;-55
2023/09/16 08:57:10;;;;;;;0.10;0.10;;;;;;;;;;5087880;28;20493;-54
2023/09/16 08:59:37;;;;;;;0.10;0.10;;;;;;;;;;5087733;28;20121;-54
2023/09/16 09:02:02;;;;;;;0.10;0.10;;;;;;;;;;5107449;28;20047;-54
2023/09/16 09:04:29;;;;;;;0.10;0.10;;;;;;;;;;5107486;28;20130;-54
2023/09/16 09:06:56;;;;;;;0.10;0.10;;;;;;;;;;5105946;28;20402;-54
2023/09/16 09:09:21;;;;;;;0.10;0.10;;;;;;;;;;5087919;28;20043;-54
2023/09/16 09:11:47;;;;;;;0.10;0.10;;;;;;;;;;5106160;28;20050;-54
2023/09/16 09:14:13;;;;;;;0.10;0.10;;;;;;;;;;5106764;28;20134;-55
2023/09/16 09:16:41;;;;;;;0.10;0.10;;;;;;;;;;5087770;28;20645;-54
2023/09/16 09:19:08;;;;;;;0.10;0.10;;;;;;;;;;5104259;28;20138;-54
2023/09/16 09:21:33;;;;;;;0.10;0.10;;;;;;;;;;5087086;28;20044;-54
2023/09/16 09:23:59;;;;;;;0.10;0.10;;;;;;;;;;5085931;28;20056;-54
2023/09/16 09:26:24;;;;;;;0.10;0.10;;;;;;;;;;5097594;28;20104;-54
2023/09/16 09:28:50;;;;;;;0.10;0.10;;;;;;;;;;5094761;28;20138;-54
2023/09/16 09:31:16;;;;;;;0.10;0.10;;;;;;;;;;5087468;28;20138;-54
2023/09/16 09:33:42;;;;;;;0.10;0.10;;;;;;;;;;5087038;28;20054;-54
2023/09/16 09:36:08;;;;;;;0.10;0.10;;;;;;;;;;5091075;28;20085;-55
2023/09/16 09:38:37;;;;;;;0.10;0.10;;;;;;;;;;5104255;28;20463;-54
2023/09/16 09:41:02;;;;;;;0.10;0.10;;;;;;;;;;5106956;28;20116;-54
2023/09/16 09:43:28;;;;;;;0.10;0.10;;;;;;;;;;5106951;28;20343;-54
2023/09/16 09:45:54;;;;;;;0.20;0.20;;;;;;;;;;5106244;28;20044;-54
2023/09/16 09:48:20;;;;;;;0.20;0.20;;;;;;;;;;5104809;28;20196;-54
2023/09/16 09:50:46;;;;;;;0.10;0.10;;;;;;;;;;5106395;28;20055;-54
2023/09/16 09:53:11;;;;;;;0.10;0.10;;;;;;;;;;5105785;28;20044;-54
2023/09/16 09:55:39;;;;;;;0.10;0.10;;;;;;;;;;5105586;28;20059;-54
2023/09/16 09:58:05;;;;;;;0.10;0.10;;;;;;;;;;5098801;28;20468;-54
2023/09/16 10:00:30;;;;;;;0.10;0.10;;;;;;;;;;5086321;28;20062;-53
2023/09/16 10:02:59;;;;;;;0.10;0.10;;;;;;;;;;5095459;28;20619;-54
2023/09/16 10:05:24;;;;;;;0.10;0.10;;;;;;;;;;5107084;28;20048;-54
2023/09/16 10:07:51;;;;;;;0.10;0.10;;;;;;;;;;5105108;28;20476;-54
2023/09/16 10:10:19;;;;;;;0.10;0.10;;;;;;;;;;5106474;28;20400;-54
2023/09/16 10:12:46;;;;;;;0.10;0.10;;;;;;;;;;5105584;28;20134;-54
2023/09/16 10:15:12;;;;;;;0.10;0.10;;;;;;;;;;5104949;28;20126;-54
2023/09/16 10:17:38;;;;;;;0.10;0.10;;;;;;;;;;5104020;28;20098;-54
2023/09/16 10:20:03;;;;;;;0.10;0.10;;;;;;;;;;5104896;28;20060;-54
2023/09/16 10:22:29;;;;;;;0.10;0.10;;;;;;;;;;5106074;28;20419;-54
2023/09/16 10:24:55;;;;;;;0.10;0.10;;;;;;;;;;5106513;28;20479;-54
2023/09/16 10:27:22;;;;;;;0.10;0.10;;;;;;;;;;5105241;28;20059;-55
2023/09/16 10:29:48;;;;;;;0.10;0.10;;;;;;;;;;5085921;28;20040;-54
2023/09/16 10:32:16;;;;;;;0.10;0.10;;;;;;;;;;5085558;28;20495;-54
2023/09/16 10:34:46;;;;;;;0.10;0.10;;;;;;;;;;5096736;28;20047;-54
2023/09/16 10:37:15;;;;;;;0.17;0.17;;;;;;;;;;5105349;28;20497;-54
2023/09/16 10:39:41;;;;;;;0.10;0.10;;;;;;;;;;5103865;28;20051;-54
2023/09/16 10:42:07;;;;;;;0.10;0.10;;;;;;;;;;5105601;28;20324;-54
2023/09/16 10:44:32;;;;;;;0.10;0.10;;;;;;;;;;5106348;28;20051;-54
2023/09/16 10:46:58;;;;;;;0.10;0.10;;;;;;;;;;5104416;28;20488;-54
2023/09/16 10:49:24;;;;;;;0.10;0.10;;;;;;;;;;5099194;28;20051;-54
2023/09/16 10:51:50;;;;;;;0.10;0.10;;;;;;;;;;5104078;28;20345;-54
2023/09/16 10:54:20;;;;;;;0.10;0.10;;;;;;;;;;5105160;28;20047;-54
2023/09/16 10:56:47;;;;;;;0.10;0.10;;;;;;;;;;5103761;28;20059;-54
2023/09/16 10:59:17;;;;;;;0.20;0.20;;;;;;;;;;5102715;28;20051;-54
2023/09/16 11:01:47;;;;;;;0.10;0.10;;;;;;;;;;5104896;28;20097;-54
2023/09/16 11:04:14;;;;;;;0.10;0.10;;;;;;;;;;5104187;28;20271;-54
2023/09/16 11:06:40;;;;;;;0.10;0.10;;;;;;;;;;5104722;28;20047;-54
2023/09/16 11:09:06;;;;;;;0.10;0.10;;;;;;;;;;5099008;28;20047;-54
2023/09/16 11:11:32;;;;;;;0.10;0.10;;;;;;;;;;5105011;28;20062;-54
2023/09/16 11:13:58;;;;;;;0.10;0.10;;;;;;;;;;5105792;28;20082;-54
2023/09/16 11:16:23;;;;;;;0.10;0.10;;;;;;;;;;5103630;28;20138;-54
2023/09/16 11:18:51;;;;;;;0.10;0.10;;;;;;;;;;5099236;28;20052;-54
2023/09/16 11:21:19;;;;;;;0.10;0.10;;;;;;;;;;5100803;28;20051;-54
2023/09/16 11:23:46;;;;;;;0.13;0.10;;;;;;;;;;5105565;28;20546;-54
2023/09/16 11:26:16;;;;;;;0.10;0.10;;;;;;;;;;5104890;28;20102;-54
2023/09/16 11:28:42;;;;;;;0.10;0.10;;;;;;;;;;5104432;28;20503;-54
2023/09/16 11:31:07;;;;;;;0.10;0.10;;;;;;;;;;5104923;28;20374;-55
2023/09/16 11:33:34;;;;;;;0.10;0.10;;;;;;;;;;5104074;28;20552;-54
2023/09/16 11:36:16;;;;;;;0.10;0.10;;;;;;;;;;5102965;28;20047;-54
2023/09/16 11:39:02;;;;;;;0.10;0.10;;;;;;;;;;5095080;28;20051;-54
2023/09/16 11:41:27;;;;;;;0.10;0.10;;;;;;;;;;5088522;28;20052;-54
2023/09/16 11:43:53;;;;;;;0.10;0.10;;;;;;;;;;5104394;28;20050;-54
2023/09/16 11:46:19;;;;;;;0.10;0.10;;;;;;;;;;5103660;28;20048;-54
2023/09/16 11:48:47;;;;;;;0.10;0.10;;;;;;;;;;5102659;28;20481;-54
2023/09/16 11:51:14;;;;;;;0.10;0.10;;;;;;;;;;5104249;28;20452;-54
2023/09/16 11:53:40;;;;;;;0.10;0.10;;;;;;;;;;5104491;28;20656;-54
2023/09/16 11:56:06;;;;;;;0.10;0.10;;;;;;;;;;5103556;28;20048;-54
2023/09/16 11:58:32;;;;;;;0.10;0.10;;;;;;;;;;5102287;28;20082;-55
2023/09/16 12:00:58;;;;;;;0.10;0.10;;;;;;;;;;5103526;28;20039;-54
2023/09/16 12:03:23;;;;;;;0.10;0.10;;;;;;;;;;5103959;28;20074;-54
2023/09/16 12:05:50;;;;;;;0.10;0.10;;;;;;;;;;5103624;28;20044;-54
2023/09/16 12:08:15;;;;;;;0.10;0.10;;;;;;;;;;5103100;28;20116;-54
2023/09/16 12:10:41;;;;;;;0.10;0.10;;;;;;;;;;5106864;28;20554;-54
2023/09/16 12:13:07;;;;;;;0.17;0.17;;;;;;;;;;5106895;28;20454;-54
2023/09/16 12:15:32;;;;;;;0.10;0.10;;;;;;;;;;5107394;28;20079;-54
2023/09/16 12:17:58;;;;;;;0.10;0.10;;;;;;;;;;5105208;28;20079;-54
2023/09/16 12:20:24;;;;;;;0.28;0.10;;;;;;;;;;5106896;28;20055;-54
2023/09/16 12:22:51;;;;;;;0.10;0.10;;;;;;;;;;5107690;28;20051;-54
2023/09/16 12:25:17;;;;;;;0.10;0.10;;;;;;;;;;5089452;28;20561;-54
2023/09/16 12:27:43;;;;;;;0.10;0.10;;;;;;;;;;5106524;28;20147;-54
2023/09/16 12:30:09;;;;;;;0.10;0.10;;;;;;;;;;5107742;28;20595;-54
2023/09/16 12:32:34;;;;;;;0.10;0.10;;;;;;;;;;5107617;28;20043;-54
2023/09/16 12:35:02;;;;;;;0.10;0.10;;;;;;;;;;5107231;28;20043;-54
2023/09/16 12:37:27;;;;;;;0.10;0.10;;;;;;;;;;5105676;28;20048;-54
2023/09/16 12:39:53;;;;;;;0.10;0.10;;;;;;;;;;5106454;28;20082;-55
2023/09/16 12:42:18;;;;;;;0.10;0.10;;;;;;;;;;5107319;28;20062;-54
2023/09/16 12:44:44;;;;;;;0.10;0.10;;;;;;;;;;5107836;28;20525;-54
2023/09/16 12:47:10;;;;;;;0.10;0.10;;;;;;;;;;5106983;28;20100;-54
2023/09/16 12:49:36;;;;;;;0.10;0.10;;;;;;;;;;5088064;28;20048;-54
2023/09/16 12:52:02;;;;;;;0.10;0.10;;;;;;;;;;5087003;28;20420;-54
2023/09/16 12:54:29;;;;;;;0.10;0.10;;;;;;;;;;5087595;28;20534;-54
2023/09/16 12:56:54;;;;;;;0.10;0.10;;;;;;;;;;5077601;28;20082;-54
2023/09/16 12:59:20;;;;;;;0.10;0.10;;;;;;;;;;5105226;28;20047;-54
2023/09/16 13:01:47;;;;;;;0.10;0.10;;;;;;;;;;5105845;28;20048;-54
2023/09/16 13:04:12;;;;;;;0.10;0.10;;;;;;;;;;5107428;28;20382;-54
2023/09/16 13:06:39;;;;;;;0.10;0.10;;;;;;;;;;5105401;28;20439;-54
2023/09/16 13:09:05;;;;;;;0.10;0.10;;;;;;;;;;5092848;28;20048;-54
2023/09/16 13:11:31;;;;;;;0.10;0.10;;;;;;;;;;5087256;28;20044;-54
2023/09/16 13:13:57;;;;;;;0.10;0.10;;;;;;;;;;5107397;28;20854;-54
2023/09/16 13:16:27;;;;;;;0.10;0.10;;;;;;;;;;5107312;28;20400;-55
2023/09/16 13:18:53;;;;;;;0.10;0.10;;;;;;;;;;5097522;28;20048;-54
2023/09/16 13:21:26;;;;;;;0.10;0.10;;;;;;;;;;5105608;28;20147;-54
2023/09/16 13:23:52;;;;;;;0.10;0.10;;;;;;;;;;5105571;28;20490;-54
2023/09/16 13:26:18;;;;;;;0.10;0.10;;;;;;;;;;5106162;28;20476;-54
2023/09/16 13:29:01;;;;;;;0.10;0.10;;;;;;;;;;5103981;28;20052;-54
2023/09/16 13:31:27;;;;;;;0.10;0.10;;;;;;;;;;5106323;28;20043;-54
2023/09/16 13:33:59;;;;;;;0.10;0.10;;;;;;;;;;5106996;28;20051;-54
2023/09/16 13:36:26;;;;;;;0.10;0.10;;;;;;;;;;5105692;28;20043;-54
2023/09/16 13:38:51;;;;;;;0.13;0.13;;;;;;;;;;5094085;28;20464;-54
2023/09/16 13:41:18;;;;;;;0.10;0.10;;;;;;;;;;5105536;28;20424;-54
2023/09/16 13:43:43;;;;;;;0.10;0.10;;;;;;;;;;5106639;28;20051;-54
2023/09/16 13:46:09;;;;;;;0.10;0.10;;;;;;;;;;5107392;28;20048;-54
2023/09/16 13:48:34;;;;;;;0.10;0.10;;;;;;;;;;5106092;28;20051;-54
2023/09/16 13:51:02;;;;;;;0.10;0.10;;;;;;;;;;5106968;28;20047;-54
2023/09/16 13:53:28;;;;;;;0.10;0.10;;;;;;;;;;5107032;28;20051;-54
2023/09/16 13:55:54;;;;;;;0.10;0.10;;;;;;;;;;5088122;28;20105;-54
2023/09/16 13:58:20;;;;;;;0.10;0.10;;;;;;;;;;5105811;28;20055;-54
2023/09/16 14:00:46;;;;;;;0.10;0.10;;;;;;;;;;5105975;28;20043;-54
2023/09/16 14:03:12;;;;;;;0.10;0.10;;;;;;;;;;5106473;28;20087;-55
2023/09/16 14:05:38;;;;;;;0.10;0.10;;;;;;;;;;5107394;28;20519;-55
2023/09/16 14:08:03;;;;;;;0.10;0.10;;;;;;;;;;5099688;28;20059;-54
2023/09/16 14:10:30;;;;;;;0.10;0.10;;;;;;;;;;5086383;28;20163;-54
2023/09/16 14:12:58;;;;;;;0.10;0.10;;;;;;;;;;5086199;28;20075;-55
2023/09/16 14:15:24;;;;;;;0.10;0.10;;;;;;;;;;5104449;28;20476;-54
2023/09/16 14:17:49;;;;;;;0.10;0.10;;;;;;;;;;5103604;28;20058;-54
2023/09/16 14:20:15;;;;;;;0.10;0.10;;;;;;;;;;5105628;28;20064;-54
2023/09/16 14:22:41;;;;;;;0.10;0.10;;;;;;;;;;5105245;28;20052;-54
2023/09/16 14:25:07;;;;;;;0.10;0.10;;;;;;;;;;5086804;28;20048;-55
2023/09/16 14:27:32;;;;;;;0.10;0.10;;;;;;;;;;5092054;28;20043;-54
2023/09/16 14:29:58;;;;;;;0.10;0.10;;;;;;;;;;5104975;28;20055;-54
2023/09/16 14:32:24;;;;;;;0.10;0.10;;;;;;;;;;5105260;28;20073;-54
2023/09/16 14:34:50;;;;;;;0.10;0.10;;;;;;;;;;5106322;28;20052;-54
2023/09/16 14:37:16;;;;;;;0.10;0.10;;;;;;;;;;5104783;28;20058;-54